• Join FlightAware (Why Join?)
  • Login
  • US Flag 
10:11PM EDT


 

Airport Tracker/Info


-or-


 

Live Flight TrackerFlight Track Log ✈ AVN20 ✈ 03-Nov-2013 ✈ NVSS / SON - YBBN / BNE

Flight Track Log - Related Links

Times and Time Zones

All times are in EST time to prevent confusion due to time zone crossing. See the AVN20 flight status page for this flight to view local times or setup timezone preferences in your user account.

Time Position Orientation Groundspeed Altitude Reporting Facility
EST Latitude Longitude Course Direction KTS MPH feet Rate Location/Type
01:47AM -15.9947 166.7833 221° Southwest  Level FlightAware Approximate
01:48AM -16.0494 166.7343 221° Southwest  Level FlightAware Approximate
01:49AM -16.1042 166.6854 221° Southwest  Level FlightAware Approximate
01:50AM -16.1590 166.6364 221° Southwest  Level FlightAware Approximate
01:51AM -16.2137 166.5873 221° Southwest  Level FlightAware Approximate
01:52AM -16.2684 166.5383 221° Southwest  Level FlightAware Approximate
01:53AM -16.3231 166.4892 221° Southwest  Level FlightAware Approximate
01:54AM -16.3778 166.4401 221° Southwest  Level FlightAware Approximate
01:55AM -16.4325 166.3909 221° Southwest  Level FlightAware Approximate
01:56AM -16.4872 166.3418 221° Southwest  Level FlightAware Approximate
01:57AM -16.5419 166.2926 221° Southwest  Level FlightAware Approximate
01:58AM -16.5965 166.2434 221° Southwest  Level FlightAware Approximate
01:59AM -16.6512 166.1941 221° Southwest  Level FlightAware Approximate
02:00AM -16.7058 166.1449 221° Southwest  Level FlightAware Approximate
02:01AM -16.7604 166.0956 221° Southwest  Level FlightAware Approximate
02:02AM -16.8150 166.0462 221° Southwest  Level FlightAware Approximate
02:03AM -16.8696 165.9969 221° Southwest  Level FlightAware Approximate
02:04AM -16.9242 165.9475 221° Southwest  Level FlightAware Approximate
02:05AM -16.9788 165.8981 221° Southwest  Level FlightAware Approximate
02:06AM -17.0333 165.8486 221° Southwest  Level FlightAware Approximate
02:07AM -17.0879 165.7991 221° Southwest  Level FlightAware Approximate
02:08AM -17.1424 165.7496 221° Southwest  Level FlightAware Approximate
02:09AM -17.1970 165.7001 221° Southwest  Level FlightAware Approximate
02:10AM -17.2515 165.6505 221° Southwest  Level FlightAware Approximate
02:11AM -17.3060 165.6009 221° Southwest  Level FlightAware Approximate
02:12AM -17.3605 165.5513 221° Southwest  Level FlightAware Approximate
02:13AM -17.4149 165.5017 221° Southwest  Level FlightAware Approximate
02:14AM -17.4694 165.4520 221° Southwest  Level FlightAware Approximate
02:15AM -17.5239 165.4023 221° Southwest  Level FlightAware Approximate
02:16AM -17.5783 165.3525 221° Southwest  Level FlightAware Approximate
02:17AM -17.6327 165.3028 221° Southwest  Level FlightAware Approximate
02:18AM -17.6871 165.2530 221° Southwest  Level FlightAware Approximate
02:19AM -17.7416 165.2031 221° Southwest  Level FlightAware Approximate
02:20AM -17.7959 165.1533 221° Southwest  Level FlightAware Approximate
02:21AM -17.8503 165.1034 221° Southwest  Level FlightAware Approximate
02:22AM -17.9047 165.0535 221° Southwest  Level FlightAware Approximate
02:23AM -17.9590 165.0035 221° Southwest  Level FlightAware Approximate
02:24AM -18.0134 164.9535 221° Southwest  Level FlightAware Approximate
02:25AM -18.0677 164.9035 221° Southwest  Level FlightAware Approximate
02:26AM -18.1220 164.8535 221° Southwest  Level FlightAware Approximate
02:26AM -19.6129 163.4637 226° Southwest 40,000  Level Aus ATC (Calculated)
02:26AM -19.6765 163.4036 226° Southwest 40,000  Level Aus ATC (Calculated)
02:28AM -19.7565 163.3279 222° Southwest  Level FlightAware Approximate
02:29AM -19.8103 163.2768 222° Southwest  Level FlightAware Approximate
02:29AM -19.9266 163.1665 226° Southwest 40,000  Level Aus ATC (Calculated)
02:31AM -20.0064 163.0905 222° Southwest  Level FlightAware Approximate
02:32AM -20.0602 163.0393 222° Southwest  Level FlightAware Approximate
02:32AM -20.1607 162.9435 226° Southwest 40,000  Level Aus ATC (Calculated)
02:34AM -20.2674 162.8416 222° Southwest  Level FlightAware Approximate
02:34AM -20.3800 162.7338 227° Southwest 40,000  Level Aus ATC (Calculated)
02:36AM -20.4507 162.6660 222° Southwest  Level FlightAware Approximate
02:37AM -20.5044 162.6144 222° Southwest  Level FlightAware Approximate
02:38AM -20.5581 162.5629 222° Southwest  Level FlightAware Approximate
02:39AM -20.6047 162.5039 236° Southwest  Level Estimated
02:40AM -20.6530 162.4466 228° Southwest  Level FlightAware Approximate
02:41AM -20.7013 162.3893 228° Southwest  Level FlightAware Approximate
02:42AM -20.7496 162.3319 228° Southwest  Level FlightAware Approximate
02:43AM -20.7979 162.2745 228° Southwest  Level FlightAware Approximate
02:44AM -20.8462 162.2171 228° Southwest  Level FlightAware Approximate
02:45AM -20.8944 162.1596 228° Southwest  Level FlightAware Approximate
02:46AM -20.9427 162.1021 228° Southwest  Level FlightAware Approximate
02:47AM -20.9909 162.0445 228° Southwest  Level FlightAware Approximate
02:48AM -21.0391 161.9870 228° Southwest  Level FlightAware Approximate
02:49AM -21.0872 161.9293 228° Southwest  Level FlightAware Approximate
02:50AM -21.1354 161.8716 228° Southwest  Level FlightAware Approximate
02:51AM -21.1835 161.8139 228° Southwest  Level FlightAware Approximate
02:52AM -21.2317 161.7562 228° Southwest  Level FlightAware Approximate
02:53AM -21.2798 161.6984 228° Southwest  Level FlightAware Approximate
02:54AM -21.3279 161.6406 228° Southwest  Level FlightAware Approximate
02:55AM -21.3759 161.5828 228° Southwest  Level FlightAware Approximate
02:56AM -21.4240 161.5249 228° Southwest  Level FlightAware Approximate
02:57AM -21.4720 161.4669 228° Southwest  Level FlightAware Approximate
02:58AM -21.5200 161.4090 228° Southwest  Level FlightAware Approximate
02:59AM -21.5679 161.3510 228° Southwest  Level FlightAware Approximate
03:00AM -21.6159 161.2929 228° Southwest  Level FlightAware Approximate
03:01AM -21.6639 161.2348 228° Southwest  Level FlightAware Approximate
03:02AM -21.7118 161.1767 228° Southwest  Level FlightAware Approximate
03:03AM -21.7597 161.1185 228° Southwest  Level FlightAware Approximate
03:04AM -21.8076 161.0603 228° Southwest  Level FlightAware Approximate
03:05AM -21.8554 161.0021 228° Southwest  Level FlightAware Approximate
03:06AM -21.9032 160.9438 228° Southwest  Level FlightAware Approximate
03:07AM -21.9511 160.8855 229° Southwest  Level FlightAware Approximate
03:08AM -21.9988 160.8271 229° Southwest  Level FlightAware Approximate
03:09AM -22.0466 160.7688 229° Southwest  Level FlightAware Approximate
03:10AM -22.0944 160.7103 229° Southwest  Level FlightAware Approximate
03:11AM -22.1421 160.6518 229° Southwest  Level FlightAware Approximate
03:12AM -22.1898 160.5933 229° Southwest  Level FlightAware Approximate
03:13AM -22.2375 160.5348 229° Southwest  Level FlightAware Approximate
03:13AM -23.6357 159.5134 236° Southwest 40,000  Level Aus ATC (Calculated)
03:14AM -22.2852 160.4762 229° Southwest  Level FlightAware Approximate
03:14AM -23.6357 159.5134 236° Southwest 40,000  Level Aus ATC (Calculated)
03:16AM -23.7207 159.3772 236° Southwest  Level FlightAware Approximate
03:17AM -23.7654 159.3055 236° Southwest  Level FlightAware Approximate
03:18AM -23.8101 159.2337 236° Southwest  Level FlightAware Approximate
03:19AM -23.8547 159.1619 236° Southwest  Level FlightAware Approximate
03:20AM -23.8993 159.0900 236° Southwest  Level FlightAware Approximate
03:20AM -24.0319 158.8757 236° Southwest 40,000  Level Aus ATC (Calculated)
03:22AM -24.1067 158.7544 236° Southwest  Level FlightAware Approximate
03:23AM -24.1511 158.6822 236° Southwest  Level FlightAware Approximate
03:24AM -24.1954 158.6100 236° Southwest  Level FlightAware Approximate
03:25AM -24.2398 158.5378 236° Southwest  Level FlightAware Approximate
03:26AM -24.2841 158.4655 236° Southwest  Level FlightAware Approximate
03:27AM -24.3283 158.3931 236° Southwest  Level FlightAware Approximate
03:28AM -24.3726 158.3207 236° Southwest  Level FlightAware Approximate
03:29AM -24.4168 158.2482 236° Southwest  Level FlightAware Approximate
03:30AM -24.4610 158.1758 224° Southwest  Level Estimated
03:31AM -24.5125 158.1094 230° Southwest  Level FlightAware Approximate
03:32AM -24.5640 158.0429 230° Southwest  Level FlightAware Approximate
03:33AM -24.6155 157.9764 230° Southwest  Level FlightAware Approximate
03:33AM -24.8485 157.5347 237° Southwest 40,000  Level Aus ATC (Calculated)
03:34AM -24.6669 157.9098 230° Southwest  Level FlightAware Approximate
03:35AM -24.9175 157.4482 229° Southwest  Level FlightAware Approximate
03:36AM -24.9699 157.3824 229° Southwest  Level FlightAware Approximate
03:36AM -25.1074 157.0988 229° Southwest 403 464 40,000  Level Aus ATC (RADAR)
03:37AM -25.0223 157.3165 229° Southwest  Level FlightAware Approximate
03:37AM -25.1423 157.0366 238° Southwest 401 461 40,000  Level Aus ATC (RADAR)
03:38AM -25.1951 156.9509 236° Southwest 400 460 40,000  Level Aus ATC (RADAR)
03:38AM -25.2302 156.8893 238° Southwest 399 459 40,000  Level Aus ATC (RADAR)
03:39AM -25.2693 156.8306 234° Southwest 400 460 40,000  Level Aus ATC (RADAR)
03:40AM -25.3013 156.7795 235° Southwest 399 459 40,000  Level Aus ATC (RADAR)
03:40AM -25.3372 156.7188 237° Southwest 399 459 40,000  Level Aus ATC (RADAR)
03:41AM -25.3728 156.6573 237° Southwest 400 460 40,000  Level Aus ATC (RADAR)
03:41AM -25.4096 156.5974 236° Southwest 399 459 40,000  Level Aus ATC (RADAR)
03:42AM -25.4436 156.5346 239° Southwest 400 460 40,000  Level Aus ATC (RADAR)
03:42AM -25.4797 156.4737 237° Southwest 400 460 40,000  Level Aus ATC (RADAR)
03:43AM -25.5362 156.3785 237° Southwest 399 459 40,000  Level Aus ATC (RADAR)
03:44AM -25.5606 156.3340 239° Southwest 398 458 40,000  Level Aus ATC (RADAR)
03:44AM -25.5658 156.3252 236° Southwest 406 467 40,000  Level FlightAware ADS-B (EKCH / CPH)
03:44AM -25.5954 156.2727 238° Southwest 398 458 40,000  Level Aus ATC (RADAR)
03:45AM -25.6402 156.1932 238° Southwest 400 460 40,000  Level Aus ATC (RADAR)
03:46AM -25.6716 156.1423 236° Southwest 397 457 40,000  Level Aus ATC (RADAR)
03:46AM -25.7074 156.0825 236° Southwest 398 458 40,000  Level Aus ATC (RADAR)
03:46AM -25.7219 156.0629 237° Southwest 408 470 40,000  Level FlightAware ADS-B (EKCH / CPH)
03:47AM -25.7670 156.0120 225° Southwest 411 473 40,000  Level FlightAware ADS-B (EKCH / CPH)
03:47AM -25.8082 155.9671 224° Southwest 411 473 40,000  Level FlightAware ADS-B (EKCH / CPH)
03:48AM -25.8492 155.9226 224° Southwest 410 472 40,000  Level FlightAware ADS-B (EKCH / CPH)
03:48AM -25.8894 155.8788 224° Southwest 409 471 40,000  Level FlightAware ADS-B (EKCH / CPH)
03:49AM -25.9440 155.8189 225° Southwest 408 470 40,000  Level FlightAware ADS-B (EKCH / CPH)
03:50AM -25.9970 155.7609 225° Southwest 407 468 40,000  Level FlightAware ADS-B (EKCH / CPH)
03:50AM -26.0366 155.7174 225° Southwest 407 468 40,000  Level FlightAware ADS-B (EKCH / CPH)
03:51AM -26.0764 155.6736 225° Southwest 406 467 40,000  Level FlightAware ADS-B (EKCH / CPH)
03:51AM -26.1153 155.6310 225° Southwest 407 468 40,000  Level FlightAware ADS-B (EKCH / CPH)
03:52AM -26.1550 155.5874 225° Southwest 406 467 40,000  Level FlightAware ADS-B (EKCH / CPH)
03:52AM -26.1985 155.5397 225° Southwest 406 467 40,000  Level FlightAware ADS-B (EKCH / CPH)
03:53AM -26.2381 155.4960 225° Southwest 406 467 40,000  Level FlightAware ADS-B (EKCH / CPH)
03:53AM -26.2781 155.4521 225° Southwest 406 467 40,000  Level FlightAware ADS-B (EKCH / CPH)
03:54AM -26.3184 155.4075 225° Southwest 406 467 40,000  Level FlightAware ADS-B (EKCH / CPH)
03:54AM -26.3616 155.3599 225° Southwest 403 464 40,000  Level Aus ATC (RADAR)
03:54AM -26.3713 155.3490 225° Southwest 406 467 40,000  Level FlightAware ADS-B (EKCH / CPH)
03:55AM -26.4116 155.3044 225° Southwest 406 467 40,000  Level FlightAware ADS-B (EKCH / CPH)
03:55AM -26.4517 155.2600 225° Southwest 406 467 40,000  Level FlightAware ADS-B (EKCH / CPH)
03:56AM -26.4912 155.2161 225° Southwest 406 467 40,000  Level FlightAware ADS-B (EKCH / CPH)
03:56AM -26.5313 155.1716 225° Southwest 407 468 40,000  Level FlightAware ADS-B (EKCH / CPH)
03:57AM -26.5709 155.1277 225° Southwest 407 468 40,000  Level FlightAware ADS-B (EKCH / CPH)
03:58AM -26.6246 155.0682 225° Southwest 406 467 40,000  Level FlightAware ADS-B (EKCH / CPH)
03:58AM -26.6633 155.0250 225° Southwest 405 466 40,000  Level FlightAware ADS-B (EKCH / CPH)
03:59AM -26.7167 154.9652 225° Southwest 405 466 40,000  Level FlightAware ADS-B (EKCH / CPH)
03:59AM -26.7552 154.9224 225° Southwest 402 463 40,000 -840 Level FlightAware ADS-B (EKCH / CPH)
04:00AM -26.7935 154.8796 225° Southwest 394 453 39,200 -1,800 Descending FlightAware ADS-B (EKCH / CPH)
04:00AM -26.8052 154.8666 225° Southwest 393 452 38,900 -2,400 Descending FlightAware ADS-B (NZNE)
04:00AM -26.8460 154.8205 225° Southwest 393 452 37,600 -2,520 Descending FlightAware ADS-B (EKCH / CPH)
04:01AM -26.8847 154.7771 225° Southwest 393 452 36,300 -2,820 Descending FlightAware ADS-B (EKCH / CPH)
04:01AM -26.9222 154.7353 225° Southwest 397 457 34,800 -3,120 Descending FlightAware ADS-B (EKCH / CPH)
04:02AM -26.9629 154.6896 225° Southwest 405 466 33,200 -2,820 Descending FlightAware ADS-B (EKCH / CPH)
04:02AM -27.0014 154.6465 225° Southwest 406 467 32,000 -2,400 Descending FlightAware ADS-B (EKCH / CPH)
04:03AM -27.0425 154.6004 225° Southwest 401 461 30,800 -2,400 Descending FlightAware ADS-B (EKCH / CPH)
04:03AM -27.0824 154.5552 225° Southwest 394 453 29,600 -2,340 Descending FlightAware ADS-B (EKCH / CPH)
04:04AM -27.1189 154.5141 225° Southwest 388 447 28,500 -2,340 Descending FlightAware ADS-B (EKCH / CPH)
04:04AM -27.1572 154.4708 225° Southwest 381 438 27,300 -2,340 Descending FlightAware ADS-B (EKCH / CPH)
04:05AM -27.1949 154.4284 225° Southwest 376 433 26,200 -2,220 Descending FlightAware ADS-B (EKCH / CPH)
04:05AM -27.2300 154.3886 225° Southwest 373 429 25,100 -2,220 Descending FlightAware ADS-B (EKCH / CPH)
04:06AM -27.2671 154.3467 225° Southwest 373 429 24,000 -2,220 Descending FlightAware ADS-B (EKCH / CPH)
04:06AM -27.3031 154.3059 225° Southwest 373 429 22,900 -2,220 Descending FlightAware ADS-B (EKCH / CPH)
04:07AM -27.3408 154.2632 225° Southwest 367 422 21,800 -2,220 Descending FlightAware ADS-B (EKCH / CPH)
04:07AM -27.3753 154.2241 225° Southwest 359 413 20,700 -2,100 Descending FlightAware ADS-B (EKCH / CPH)
04:08AM -27.4102 154.1844 225° Southwest 352 405 19,700 -2,040 Descending FlightAware ADS-B (EKCH / CPH)
04:08AM -27.4441 154.1457 225° Southwest 346 398 18,700 -2,040 Descending FlightAware ADS-B (EKCH / CPH)
04:09AM -27.4774 154.1079 225° Southwest 337 388 17,700 -1,260 Descending FlightAware ADS-B (EKCH / CPH)
04:09AM -27.5078 154.0708 227° Southwest 309 356 17,500 -480 Descending FlightAware ADS-B (EKCH / CPH)
04:10AM -27.5127 154.0588 245° Southwest 302 348 17,400 -1,200 Descending FlightAware ADS-B (EKCH / CPH)
04:10AM -27.5156 154.0402 260° West 302 348 17,100 -1,620 Descending FlightAware ADS-B (EKCH / CPH)
04:10AM -27.5149 154.0296 275° West 304 350 16,900 -1,500 Descending FlightAware ADS-B (EKCH / CPH)
04:10AM -27.5064 153.9795 281° West 301 346 16,100 -1,620 Descending FlightAware ADS-B (EKCH / CPH)
04:11AM -27.4992 153.9351 280° West 302 348 15,300 -1,620 Descending FlightAware ADS-B (EKCH / CPH)
04:11AM -27.4912 153.8861 280° West 305 351 14,500 -1,620 Descending FlightAware ADS-B (EKCH / CPH)
04:12AM -27.4836 153.8396 280° West 301 346 13,700 -1,620 Descending FlightAware ADS-B (EKCH / CPH)
04:12AM -27.4760 153.7940 281° West 299 344 12,900 -1,620 Descending FlightAware ADS-B (EKCH / CPH)
04:13AM -27.4684 153.7481 281° West 295 339 12,100 -1,500 Descending FlightAware ADS-B (EKCH / CPH)
04:13AM -27.4609 153.7034 281° West 291 335 11,400 -1,500 Descending FlightAware ADS-B (EKCH / CPH)
04:14AM -27.4531 153.6574 281° West 285 328 10,600 -1,560 Descending Aus ATC (RADAR)
04:14AM -27.4514 153.6461 281° West 288 331 10,400 -1,680 Descending FlightAware ADS-B (EKCH / CPH)
04:14AM -27.4463 153.6146 280° West 284 327 9,800 -1,500 Descending FlightAware ADS-B (EKCH / CPH)
04:15AM -27.4416 153.5863 281° West 281 323 9,400 -1,500 Descending FlightAware ADS-B (EKCH / CPH)
04:15AM -27.4367 153.5573 281° West 279 321 8,800 -1,500 Descending FlightAware ADS-B (EKCH / CPH)
04:15AM -27.4321 153.5300 281° West 277 319 8,400 -1,380 Descending FlightAware ADS-B (EKCH / CPH)
04:16AM -27.4324 153.5011 269° West 265 305 7,900 -1,200 Descending FlightAware ADS-B (EKCH / CPH)
04:16AM -27.4365 153.4887 250° West 260 299 7,800 -600 Descending FlightAware ADS-B (EKCH / CPH)
04:16AM -27.4474 153.4641 244° Southwest 262 302 7,600 -780 Descending FlightAware ADS-B (EKCH / CPH)
04:17AM -27.4576 153.4409 244° Southwest 264 304 7,300 -780 Descending FlightAware ADS-B (EKCH / CPH)
04:17AM -27.4687 153.4156 244° Southwest 265 305 7,100 -780 Descending FlightAware ADS-B (EKCH / CPH)
04:17AM -27.4801 153.3896 244° Southwest 264 304 6,800 -900 Descending FlightAware ADS-B (EKCH / CPH)
04:18AM -27.4902 153.3668 244° Southwest 263 303 6,500 -780 Descending FlightAware ADS-B (EKCH / CPH)
04:18AM -27.5013 153.3414 244° Southwest 264 304 6,300 -780 Descending FlightAware ADS-B (EKCH / CPH)
04:18AM -27.5123 153.3166 244° Southwest 266 306 6,000 -780 Descending FlightAware ADS-B (EKCH / CPH)
04:19AM -27.5231 153.2921 244° Southwest 267 307 5,800 -780 Descending FlightAware ADS-B (EKCH / CPH)
04:19AM -27.5340 153.2673 244° Southwest 267 307 5,500 -900 Descending FlightAware ADS-B (EKCH / CPH)
04:19AM -27.5448 153.2428 244° Southwest 262 302 5,200 -780 Descending FlightAware ADS-B (EKCH / CPH)
04:20AM -27.5550 153.2198 243° Southwest 251 289 5,000 -600 Descending FlightAware ADS-B (EKCH / CPH)
04:20AM -27.5658 153.1954 244° Southwest 246 283 4,800 -780 Descending FlightAware ADS-B (EKCH / CPH)
04:20AM -27.5760 153.1721 244° Southwest 243 280 4,500 -780 Descending FlightAware ADS-B (EKCH / CPH)
04:21AM -27.5854 153.1506 244° Southwest 234 269 4,300 -600 Descending FlightAware ADS-B (EKCH / CPH)
04:21AM -27.5953 153.1279 244° Southwest 227 261 4,100 -600 Descending FlightAware ADS-B (EKCH / CPH)
04:21AM -27.5981 153.1170 254° West 216 249 4,000 -600 Descending FlightAware ADS-B (EKCH / CPH)
04:21AM -27.5981 153.1064 270° West 204 235 3,900 -600 Descending FlightAware ADS-B (EKCH / CPH)
04:21AM -27.5959 153.0967 284° West 196 226 3,800 -600 Descending FlightAware ADS-B (EKCH / CPH)
04:22AM -27.5903 153.0780 288° West 183 211 3,600 -600 Descending FlightAware ADS-B (EKCH / CPH)
04:22AM -27.5853 153.0598 287° West 181 208 3,400 -600 Descending FlightAware ADS-B (EKCH / CPH)
04:22AM -27.5801 153.0431 289° West 182 209 3,200 -600 Descending FlightAware ADS-B (EKCH / CPH)
04:23AM -27.5742 153.0355 311° West 183 211 3,100 -300 Descending FlightAware ADS-B (EKCH / CPH)
04:23AM -27.5660 153.0309 334° Northwest 187 215 3,100 -300 Level FlightAware ADS-B (EKCH / CPH)
04:23AM -27.5572 153.0304 357° North 190 219 3,000 -300 Descending FlightAware ADS-B (EKCH / CPH)
04:23AM -27.5505 153.0331 20° North 190 219 3,000 -420 Level FlightAware ADS-B (EKCH / CPH)
04:23AM -27.5337 153.0435 29° Northeast 192 221 2,800 -900 Descending FlightAware ADS-B (EKCH / CPH)
04:24AM -27.5178 153.0524 27° Northeast 187 215 2,400 -1,080 Descending FlightAware ADS-B (EKCH / CPH)
04:24AM -27.5035 153.0604 26° Northeast 171 197 2,100 -900 Descending FlightAware ADS-B (EKCH / CPH)
04:24AM -27.4898 153.0684 27° Northeast 155 178 1,800 -780 Descending FlightAware ADS-B (EKCH / CPH)
04:25AM -27.4791 153.0745 27° Northeast 135 155 1,600 -600 Descending FlightAware ADS-B (EKCH / CPH)
04:25AM -27.4691 153.0803 27° Northeast 116 133 1,400 -600 Descending FlightAware ADS-B (EKCH / CPH)
04:25AM -27.4585 153.0863 27° Northeast 116 133 1,200 -600 Descending FlightAware ADS-B (EKCH / CPH)
04:26AM -27.4493 153.0915 27° Northeast 123 142 1,000 -600 Descending FlightAware ADS-B (EKCH / CPH)
04:26AM -27.4389 153.0974 27° Northeast 123 142 800 -600 Descending FlightAware ADS-B (EKCH / CPH)
04:26AM -27.4280 153.1038 27° Northeast 125 144 600 -600 Descending FlightAware ADS-B (EKCH / CPH)
04:27AM -27.4188 153.1090 27° Northeast 127 146 400 -780 Descending FlightAware ADS-B (EKCH / CPH)
04:27AM -27.4075 153.1155 27° Northeast 127 146 100 -900 Descending FlightAware ADS-B (EKCH / CPH)